weather.gov     
National Weather Service

Terminal Aerodrome Forecast
NWS Homepage
This page is being discontinued on March 12, 2014.
The same data is available at this site. Please update your bookmarks.
Thank you, and we apologize for the inconvenience.
Please send an email to SR-SRH.Webmaster@noaa.gov with any concerns.


Current Version
Previous Version:    01  02  03  04  05  06  07  08  09  10  11  12  13  14  15  16  17  18  19  20  21  22  23  24  25  26  27  
[Printable]
884
FTUS44 KLZK 202300
TAFHOT
TAF
KHOT 202333Z 2100/2124 19006KT P6SM SCT080 BKN250
     FM210300 16003KT P6SM SCT080 BKN250
     FM210600 15003KT P6SM VCSH SCT030 BKN080 OVC250
      TEMPO 2108/2112 6SM -SHRA BR BKN040 OVC080
     FM211200 18006KT P6SM VCSH SCT025 BKN050 OVC100
      TEMPO 2112/2116 6SM -SHRA BR BKN035 OVC050
     FM211600 16007KT P6SM -SHRA BKN050 OVC100
     FM211800 22009KT P6SM -TSRA BKN040CB OVC100=


U.S. Dept. of Commerce
NOAA National Weather Service
1325 East West Highway
Silver Spring, MD 20910
E-mail: w-nws.webmaster@noaa.gov
Page last modified: May 16, 2007
NATIONAL WEATHER SERVICE: for Safety, for Work, for Fun - FOR LIFE